Time;durP1;ratioP1;P1;durP2;ratioP2;P2;SDS_P1;SDS_P2;PMS_P1;PMS_P2;Temp;Humidity;BMP_temperature;BMP_pressure;BME280_temperature;BME280_humidity;BME280_pressure;Samples;Min_cycle;Max_cycle;Signal;HPM_P1;HPM_P2
2022/03/09 00:01:21;;;;;;;;;;;;;;;;;;4220779;28;1982;-60
2022/03/09 00:03:42;;;;;;;;;;;;;;;;;;4220597;28;1000;-60
2022/03/09 00:06:02;;;;;;;;;;;;;;;;;;4220865;28;874;-60
2022/03/09 00:08:23;;;;;;;;;;;;;;;;;;4220887;28;798;-60
2022/03/09 00:10:44;;;;;;;;;;;;;;;;;;4220265;28;1175;-60
2022/03/09 00:13:05;;;;;;;;;;;;;;;;;;4220525;28;1070;-60
2022/03/09 00:15:26;;;;;;;;;;;;;;;;;;4219775;28;940;-60
2022/03/09 00:17:47;;;;;;;;;;;;;;;;;;4205357;28;901;-60
2022/03/09 00:20:07;;;;;;;;;;;;;;;;;;4220405;28;1910;-60
2022/03/09 00:22:28;;;;;;;;;;;;;;;;;;4220476;28;1034;-60
2022/03/09 00:24:49;;;;;;;;;;;;;;;;;;4220159;28;1049;-60
2022/03/09 00:27:09;;;;;;;;;;;;;;;;;;4220586;28;946;-60
2022/03/09 00:29:31;;;;;;;;;;;;;;;;;;4202210;28;1723;-60
2022/03/09 00:31:52;;;;;;;;;;;;;;;;;;4220621;28;1002;-60
2022/03/09 00:34:12;;;;;;;;;;;;;;;;;;4220445;28;890;-60
2022/03/09 00:36:33;;;;;;;;;;;;;;;;;;4220615;28;1092;-60
2022/03/09 00:38:53;;;;;;;;;;;;;;;;;;4220475;28;1281;-60
2022/03/09 00:41:14;;;;;;;;;;;;;;;;;;4220015;28;1905;-60
2022/03/09 00:43:36;;;;;;;;;;;;;;;;;;4220674;28;814;-60
2022/03/09 00:45:57;;;;;;;;;;;;;;;;;;4220625;28;925;-60
2022/03/09 00:48:18;;;;;;;;;;;;;;;;;;4220460;28;869;-60
2022/03/09 00:50:38;;;;;;;;;;;;;;;;;;4220224;28;924;-61
2022/03/09 00:52:59;;;;;;;;;;;;;;;;;;4219941;28;906;-60
2022/03/09 00:55:20;;;;;;;;;;;;;;;;;;4219922;28;1040;-60
2022/03/09 00:57:41;;;;;;;;;;;;;;;;;;4220284;28;1013;-60
2022/03/09 01:00:01;;;;;;;;;;;;;;;;;;4220118;28;1982;-60
2022/03/09 01:02:22;;;;;;;;;;;;;;;;;;4220098;28;1023;-60
2022/03/09 01:04:43;;;;;;;;;;;;;;;;;;4220078;28;1016;-60
2022/03/09 01:07:03;;;;;;;;;;;;;;;;;;4219951;28;1038;-60
2022/03/09 01:09:24;;;;;;;;;;;;;;;;;;4219531;28;1018;-60
2022/03/09 01:11:44;;;;;;;;;;;;;;;;;;4220046;28;941;-60
2022/03/09 01:14:05;;;;;;;;;;;;;;;;;;4220398;28;886;-61
2022/03/09 01:16:27;;;;;;;;;;;;;;;;;;4220054;28;958;-61
2022/03/09 01:18:47;;;;;;;;;;;;;;;;;;4220424;28;908;-60
2022/03/09 01:21:08;;;;;;;;;;;;;;;;;;4222340;28;1886;-60
2022/03/09 01:23:29;;;;;;;;;;;;;;;;;;4204630;28;1047;-61
2022/03/09 01:25:51;;;;;;;;;;;;;;;;;;4222990;28;820;-60
2022/03/09 01:28:12;;;;;;;;;;;;;;;;;;4207155;28;1142;-61
2022/03/09 01:30:32;;;;;;;;;;;;;;;;;;4207205;28;994;-60
2022/03/09 01:32:53;;;;;;;;;;;;;;;;;;4222653;28;944;-61
2022/03/09 01:35:13;;;;;;;;;;;;;;;;;;4222829;28;1009;-60
2022/03/09 01:37:35;;;;;;;;;;;;;;;;;;4222925;28;944;-60
2022/03/09 01:39:55;;;;;;;;;;;;;;;;;;4222401;28;1245;-60
2022/03/09 01:42:16;;;;;;;;;;;;;;;;;;4222937;28;945;-60
2022/03/09 01:44:36;;;;;;;;;;;;;;;;;;4222795;28;899;-61
2022/03/09 01:46:57;;;;;;;;;;;;;;;;;;4207174;28;935;-60
2022/03/09 01:49:18;;;;;;;;;;;;;;;;;;4222328;28;829;-61
2022/03/09 01:51:39;;;;;;;;;;;;;;;;;;4222280;28;993;-61
2022/03/09 01:53:59;;;;;;;;;;;;;;;;;;4222428;28;1022;-60
2022/03/09 01:56:20;;;;;;;;;;;;;;;;;;4222258;28;975;-60
2022/03/09 01:58:41;;;;;;;;;;;;;;;;;;4206525;28;837;-60
2022/03/09 02:04:17;;;;;;;;;;;;;;;;;;4204987;28;1018;-60
2022/03/09 02:06:38;;;;;;;;;;;;;;;;;;4205064;28;977;-60
2022/03/09 02:11:37;;;;;;;;;;;;;;;;;;4190231;28;1231;-61
2022/03/09 02:13:58;;;;;;;;;;;;;;;;;;4205037;28;1016;-61
2022/03/09 02:16:18;;;;;;;;;;;;;;;;;;4205146;28;1477;-60
2022/03/09 02:18:39;;;;;;;;;;;;;;;;;;4205141;28;936;-60
2022/03/09 02:20:59;;;;;;;;;;;;;;;;;;4203760;28;1906;-60
2022/03/09 02:23:20;;;;;;;;;;;;;;;;;;4205151;28;1131;-60
2022/03/09 02:25:41;;;;;;;;;;;;;;;;;;4205133;28;932;-60
2022/03/09 02:28:01;;;;;;;;;;;;;;;;;;4204795;28;1133;-60
2022/03/09 02:30:22;;;;;;;;;;;;;;;;;;4207312;28;1123;-61
2022/03/09 02:32:43;;;;;;;;;;;;;;;;;;4219978;28;1164;-62
2022/03/09 02:35:03;;;;;;;;;;;;;;;;;;4220307;28;1016;-61
2022/03/09 02:37:24;;;;;;;;;;;;;;;;;;4221347;28;1009;-61
2022/03/09 02:39:45;;;;;;;;;;;;;;;;;;4221709;28;1264;-60
2022/03/09 02:42:05;;;;;;;;;;;;;;;;;;4221684;28;1980;-60
2022/03/09 02:44:26;;;;;;;;;;;;;;;;;;4206058;28;1021;-60
2022/03/09 02:46:47;;;;;;;;;;;;;;;;;;4222029;28;930;-60
2022/03/09 02:49:07;;;;;;;;;;;;;;;;;;4222016;28;1205;-61
2022/03/09 02:51:28;;;;;;;;;;;;;;;;;;4221726;28;920;-61
2022/03/09 02:53:49;;;;;;;;;;;;;;;;;;4221826;28;856;-60
2022/03/09 02:56:09;;;;;;;;;;;;;;;;;;4206132;28;1012;-60
2022/03/09 02:58:30;;;;;;;;;;;;;;;;;;4221465;28;920;-60
2022/03/09 03:00:51;;;;;;;;;;;;;;;;;;4220247;28;1930;-60
2022/03/09 03:03:13;;;;;;;;;;;;;;;;;;4206346;28;1022;-61
2022/03/09 03:05:33;;;;;;;;;;;;;;;;;;4220882;28;1094;-61
2022/03/09 03:07:54;;;;;;;;;;;;;;;;;;4221781;28;863;-60
2022/03/09 03:10:15;;;;;;;;;;;;;;;;;;4221675;28;929;-60
2022/03/09 03:12:36;;;;;;;;;;;;;;;;;;4220788;28;810;-60
2022/03/09 03:14:57;;;;;;;;;;;;;;;;;;4206153;28;886;-60
2022/03/09 03:17:18;;;;;;;;;;;;;;;;;;4221485;28;936;-60
2022/03/09 03:19:38;;;;;;;;;;;;;;;;;;4221637;28;1031;-60
2022/03/09 03:21:59;;;;;;;;;;;;;;;;;;4221199;28;1992;-61
2022/03/09 03:24:19;;;;;;;;;;;;;;;;;;4221288;28;857;-60
2022/03/09 03:26:40;;;;;;;;;;;;;;;;;;4206256;28;822;-60
2022/03/09 03:29:01;;;;;;;;;;;;;;;;;;4205859;28;882;-60
2022/03/09 03:31:21;;;;;;;;;;;;;;;;;;4205418;28;995;-60
2022/03/09 03:33:42;;;;;;;;;;;;;;;;;;4221279;28;834;-60
2022/03/09 03:36:02;;;;;;;;;;;;;;;;;;4220901;28;880;-60
2022/03/09 03:38:23;;;;;;;;;;;;;;;;;;4221313;28;1001;-60
2022/03/09 03:40:43;;;;;;;;;;;;;;;;;;4221418;28;2054;-60
2022/03/09 03:43:04;;;;;;;;;;;;;;;;;;4221004;28;901;-60
2022/03/09 03:45:25;;;;;;;;;;;;;;;;;;4221358;28;865;-60
2022/03/09 03:47:46;;;;;;;;;;;;;;;;;;4221225;28;1144;-60
2022/03/09 03:50:06;;;;;;;;;;;;;;;;;;4220028;28;938;-60
2022/03/09 03:52:27;;;;;;;;;;;;;;;;;;4221250;28;820;-60
2022/03/09 03:54:47;;;;;;;;;;;;;;;;;;4205574;28;880;-61
2022/03/09 03:57:08;;;;;;;;;;;;;;;;;;4220878;28;1033;-61
2022/03/09 03:59:29;;;;;;;;;;;;;;;;;;4205075;28;979;-60
2022/03/09 04:01:49;;;;;;;;;;;;;;;;;;4220490;28;2003;-60
2022/03/09 04:04:09;;;;;;;;;;;;;;;;;;4220534;28;747;-60
2022/03/09 04:06:30;;;;;;;;;;;;;;;;;;4220479;28;821;-60
2022/03/09 04:08:51;;;;;;;;;;;;;;;;;;4221141;28;819;-60
2022/03/09 04:11:12;;;;;;;;;;;;;;;;;;4220959;28;825;-60
2022/03/09 04:13:33;;;;;;;;;;;;;;;;;;4220878;28;838;-61
2022/03/09 04:15:53;;;;;;;;;;;;;;;;;;4220824;28;1014;-60
2022/03/09 04:18:14;;;;;;;;;;;;;;;;;;4219693;28;1128;-60
2022/03/09 04:20:34;;;;;;;;;;;;;;;;;;4221048;28;950;-61
2022/03/09 04:22:55;;;;;;;;;;;;;;;;;;4219546;28;1906;-61
2022/03/09 04:25:16;;;;;;;;;;;;;;;;;;4203099;28;1284;-61
2022/03/09 04:27:36;;;;;;;;;;;;;;;;;;4207561;28;966;-61
2022/03/09 04:29:57;;;;;;;;;;;;;;;;;;4220691;28;977;-60
2022/03/09 04:32:18;;;;;;;;;;;;;;;;;;4219398;28;1305;-60
2022/03/09 04:34:38;;;;;;;;;;;;;;;;;;4220032;28;1081;-60
2022/03/09 04:36:59;;;;;;;;;;;;;;;;;;4219333;28;847;-60
2022/03/09 04:39:20;;;;;;;;;;;;;;;;;;4220200;28;1064;-62
2022/03/09 04:41:40;;;;;;;;;;;;;;;;;;4220383;28;1905;-60
2022/03/09 04:44:01;;;;;;;;;;;;;;;;;;4219054;28;870;-60
2022/03/09 04:46:22;;;;;;;;;;;;;;;;;;4219816;28;1818;-61
2022/03/09 04:48:44;;;;;;;;;;;;;;;;;;4220051;28;1000;-61
2022/03/09 04:51:05;;;;;;;;;;;;;;;;;;4220102;28;858;-60
2022/03/09 04:53:25;;;;;;;;;;;;;;;;;;4219545;28;891;-60
2022/03/09 04:55:46;;;;;;;;;;;;;;;;;;4218703;28;974;-61
2022/03/09 04:58:06;;;;;;;;;;;;;;;;;;4220211;28;836;-60
2022/03/09 05:00:27;;;;;;;;;;;;;;;;;;4220153;28;866;-61
2022/03/09 05:02:48;;;;;;;;;;;;;;;;;;4220307;28;1981;-61
2022/03/09 05:05:08;;;;;;;;;;;;;;;;;;4219981;28;1151;-61
2022/03/09 05:07:29;;;;;;;;;;;;;;;;;;4220445;28;1009;-60
2022/03/09 05:09:50;;;;;;;;;;;;;;;;;;4220282;28;1029;-60
2022/03/09 05:12:11;;;;;;;;;;;;;;;;;;4220631;28;859;-61
2022/03/09 05:14:31;;;;;;;;;;;;;;;;;;4205207;28;876;-60
2022/03/09 05:16:52;;;;;;;;;;;;;;;;;;4220101;28;825;-60
2022/03/09 05:19:13;;;;;;;;;;;;;;;;;;4204760;28;953;-60
2022/03/09 05:21:34;;;;;;;;;;;;;;;;;;4220294;28;821;-60
2022/03/09 05:23:55;;;;;;;;;;;;;;;;;;4218711;28;1034;-60
2022/03/09 05:26:16;;;;;;;;;;;;;;;;;;4219504;28;890;-61
2022/03/09 05:28:37;;;;;;;;;;;;;;;;;;4219609;28;935;-60
2022/03/09 05:30:57;;;;;;;;;;;;;;;;;;4219665;28;813;-65
2022/03/09 05:33:18;;;;;;;;;;;;;;;;;;4219968;28;822;-66
2022/03/09 05:35:39;;;;;;;;;;;;;;;;;;4219904;28;822;-65
2022/03/09 05:37:59;;;;;;;;;;;;;;;;;;4219969;28;841;-64
2022/03/09 05:40:20;;;;;;;;;;;;;;;;;;4220084;28;1067;-65
2022/03/09 05:42:41;;;;;;;;;;;;;;;;;;4220111;28;1912;-66
2022/03/09 05:45:02;;;;;;;;;;;;;;;;;;4204527;28;922;-65
2022/03/09 05:47:22;;;;;;;;;;;;;;;;;;4219735;28;1022;-67
2022/03/09 05:49:43;;;;;;;;;;;;;;;;;;4219690;28;929;-68
2022/03/09 05:52:04;;;;;;;;;;;;;;;;;;4218991;28;822;-66
2022/03/09 05:54:24;;;;;;;;;;;;;;;;;;4219878;28;817;-66
2022/03/09 05:56:45;;;;;;;;;;;;;;;;;;4219894;28;932;-67
2022/03/09 05:59:06;;;;;;;;;;;;;;;;;;4203812;28;985;-66
2022/03/09 06:01:26;;;;;;;;;;;;;;;;;;4218868;28;1173;-66
2022/03/09 06:03:47;;;;;;;;;;;;;;;;;;4219436;28;1905;-66
2022/03/09 06:06:07;;;;;;;;;;;;;;;;;;4221643;28;913;-66
2022/03/09 06:08:28;;;;;;;;;;;;;;;;;;4206894;28;1040;-67
2022/03/09 06:10:49;;;;;;;;;;;;;;;;;;4207168;28;958;-66
2022/03/09 06:13:09;;;;;;;;;;;;;;;;;;4222148;28;784;-66
2022/03/09 06:15:30;;;;;;;;;;;;;;;;;;4222217;28;925;-67
2022/03/09 06:17:51;;;;;;;;;;;;;;;;;;4222557;28;1023;-67
2022/03/09 06:20:12;;;;;;;;;;;;;;;;;;4207065;28;889;-66
2022/03/09 06:22:33;;;;;;;;;;;;;;;;;;4222157;28;1984;-67
2022/03/09 06:24:54;;;;;;;;;;;;;;;;;;4222073;28;1006;-67
2022/03/09 06:27:14;;;;;;;;;;;;;;;;;;4221892;28;962;-67
2022/03/09 06:29:35;;;;;;;;;;;;;;;;;;4222219;28;1013;-55
2022/03/09 06:31:56;;;;;;;;;;;;;;;;;;4215284;28;1139;-55
2022/03/09 06:34:17;;;;;;;;;;;;;;;;;;4214895;28;1207;-54
2022/03/09 06:36:42;;;;;;;;;;;;;;;;;;4220932;28;932;-55
2022/03/09 06:39:03;;;;;;;;;;;;;;;;;;4220642;28;1178;-56
2022/03/09 06:41:24;;;;;;;;;;;;;;;;;;4220725;28;1007;-55
2022/03/09 06:43:45;;;;;;;;;;;;;;;;;;4219406;28;1906;-55
2022/03/09 06:46:05;;;;;;;;;;;;;;;;;;4219898;28;947;-55
2022/03/09 06:48:26;;;;;;;;;;;;;;;;;;4203214;28;1058;-55
2022/03/09 06:50:46;;;;;;;;;;;;;;;;;;4203077;28;824;-55
2022/03/09 06:53:07;;;;;;;;;;;;;;;;;;4191446;28;915;-55
2022/03/09 06:55:28;;;;;;;;;;;;;;;;;;4203213;28;861;-55
2022/03/09 06:57:48;;;;;;;;;;;;;;;;;;4187410;28;901;-55
2022/03/09 07:00:11;;;;;;;;;;;;;;;;;;4210477;28;1009;-54
2022/03/09 07:02:31;;;;;;;;;;;;;;;;;;4204223;28;1906;-55
2022/03/09 07:04:52;;;;;;;;;;;;;;;;;;4211649;28;1618;-54
2022/03/09 07:07:13;;;;;;;;;;;;;;;;;;4203790;28;1579;-54
2022/03/09 07:09:33;;;;;;;;;;;;;;;;;;4206147;28;926;-55
2022/03/09 07:11:54;;;;;;;;;;;;;;;;;;4220835;28;827;-55
2022/03/09 07:14:14;;;;;;;;;;;;;;;;;;4220078;28;1017;-54
2022/03/09 07:16:35;;;;;;;;;;;;;;;;;;4220626;28;929;-55
2022/03/09 07:18:56;;;;;;;;;;;;;;;;;;4221112;28;830;-55
2022/03/09 07:21:17;;;;;;;;;;;;;;;;;;4221017;28;912;-55
2022/03/09 07:23:37;;;;;;;;;;;;;;;;;;4220685;28;1910;-55
2022/03/09 07:25:58;;;;;;;;;;;;;;;;;;4221001;28;928;-55
2022/03/09 07:28:19;;;;;;;;;;;;;;;;;;4205293;28;1093;-55
2022/03/09 07:30:39;;;;;;;;;;;;;;;;;;4221203;28;973;-55
2022/03/09 07:33:00;;;;;;;;;;;;;;;;;;4220696;28;1018;-55
2022/03/09 07:35:21;;;;;;;;;;;;;;;;;;4220922;28;790;-54
2022/03/09 07:37:41;;;;;;;;;;;;;;;;;;4219968;28;850;-54
2022/03/09 07:40:02;;;;;;;;;;;;;;;;;;4210059;28;2254;-55
2022/03/09 07:42:23;;;;;;;;;;;;;;;;;;4203454;28;1382;-54
2022/03/09 07:44:43;;;;;;;;;;;;;;;;;;4205301;28;1406;-55
2022/03/09 07:47:04;;;;;;;;;;;;;;;;;;4221010;28;946;-55
2022/03/09 07:49:25;;;;;;;;;;;;;;;;;;4218228;28;1317;-54
2022/03/09 07:51:45;;;;;;;;;;;;;;;;;;4194730;28;857;-55
2022/03/09 07:54:07;;;;;;;;;;;;;;;;;;4210327;28;2190;-55
2022/03/09 07:56:27;;;;;;;;;;;;;;;;;;4220592;28;796;-54
2022/03/09 07:58:48;;;;;;;;;;;;;;;;;;4203589;28;888;-55
2022/03/09 08:01:09;;;;;;;;;;;;;;;;;;4203919;28;1299;-54
2022/03/09 08:03:29;;;;;;;;;;;;;;;;;;4203352;28;1971;-55
2022/03/09 08:05:50;;;;;;;;;;;;;;;;;;4203050;28;928;-55
2022/03/09 08:08:11;;;;;;;;;;;;;;;;;;4203481;28;845;-55
2022/03/09 08:10:31;;;;;;;;;;;;;;;;;;4213149;28;1089;-54
2022/03/09 08:12:52;;;;;;;;;;;;;;;;;;4219819;28;927;-54
2022/03/09 08:15:12;;;;;;;;;;;;;;;;;;4219932;28;923;-55
2022/03/09 08:17:34;;;;;;;;;;;;;;;;;;4219698;28;831;-55
2022/03/09 08:19:54;;;;;;;;;;;;;;;;;;4219309;28;983;-54
2022/03/09 08:22:15;;;;;;;;;;;;;;;;;;4220292;28;872;-54
2022/03/09 08:24:35;;;;;;;;;;;;;;;;;;4215281;28;1906;-55
2022/03/09 08:26:56;;;;;;;;;;;;;;;;;;4204741;28;1666;-55
2022/03/09 08:29:17;;;;;;;;;;;;;;;;;;4203113;28;1422;-54
2022/03/09 08:31:37;;;;;;;;;;;;;;;;;;4210241;28;1972;-56
2022/03/09 08:33:58;;;;;;;;;;;;;;;;;;4203961;28;1740;-55
2022/03/09 08:36:18;;;;;;;;;;;;;;;;;;4210714;28;1519;-56
2022/03/09 08:38:39;;;;;;;;;;;;;;;;;;4217829;28;1740;-55
2022/03/09 08:41:00;;;;;;;;;;;;;;;;;;4218478;28;842;-55
2022/03/09 08:43:21;;;;;;;;;;;;;;;;;;4218160;28;1910;-55
2022/03/09 08:45:41;;;;;;;;;;;;;;;;;;4218372;28;983;-55
2022/03/09 08:48:03;;;;;;;;;;;;;;;;;;4218109;28;932;-56
2022/03/09 08:50:24;;;;;;;;;;;;;;;;;;4218253;28;839;-54
2022/03/09 08:52:44;;;;;;;;;;;;;;;;;;4203224;28;894;-54
2022/03/09 08:55:06;;;;;;;;;;;;;;;;;;4218128;28;1444;-54
2022/03/09 08:57:26;;;;;;;;;;;;;;;;;;4218079;28;858;-54
2022/03/09 08:59:47;;;;;;;;;;;;;;;;;;4216408;28;1041;-55
2022/03/09 09:02:07;;;;;;;;;;;;;;;;;;4218427;28;903;-54
2022/03/09 09:04:28;;;;;;;;;;;;;;;;;;4218039;28;1965;-55
2022/03/09 09:06:48;;;;;;;;;;;;;;;;;;4218316;28;877;-55
2022/03/09 09:09:09;;;;;;;;;;;;;;;;;;4218054;28;1331;-54
2022/03/09 09:11:30;;;;;;;;;;;;;;;;;;4203128;28;994;-54
2022/03/09 09:13:51;;;;;;;;;;;;;;;;;;4218687;28;930;-56
2022/03/09 09:16:12;;;;;;;;;;;;;;;;;;4218239;28;827;-54
2022/03/09 09:18:32;;;;;;;;;;;;;;;;;;4218108;28;973;-55
2022/03/09 09:20:53;;;;;;;;;;;;;;;;;;4218331;28;963;-54
2022/03/09 09:23:14;;;;;;;;;;;;;;;;;;4217733;28;1913;-55
2022/03/09 09:25:34;;;;;;;;;;;;;;;;;;4201589;28;1271;-55
2022/03/09 09:27:55;;;;;;;;;;;;;;;;;;4201900;28;817;-53
2022/03/09 09:30:16;;;;;;;;;;;;;;;;;;4201796;28;1047;-54
2022/03/09 09:32:37;;;;;;;;;;;;;;;;;;4197255;28;1331;-54
2022/03/09 09:34:57;;;;;;;;;;;;;;;;;;4218427;28;1108;-54
2022/03/09 09:37:18;;;;;;;;;;;;;;;;;;4217736;28;841;-54
2022/03/09 09:39:40;;;;;;;;;;;;;;;;;;4217992;28;1241;-56
2022/03/09 09:42:01;;;;;;;;;;;;;;;;;;4221201;28;822;-55
2022/03/09 09:44:23;;;;;;;;;;;;;;;;;;4221030;28;1914;-57
2022/03/09 09:46:43;;;;;;;;;;;;;;;;;;4220963;28;854;-55
2022/03/09 09:49:04;;;;;;;;;;;;;;;;;;4219823;28;1045;-56
2022/03/09 09:51:25;;;;;;;;;;;;;;;;;;4220669;28;883;-57
2022/03/09 09:53:45;;;;;;;;;;;;;;;;;;4220559;28;1153;-56
2022/03/09 09:56:06;;;;;;;;;;;;;;;;;;4220972;28;1006;-56
2022/03/09 09:58:28;;;;;;;;;;;;;;;;;;4220921;28;982;-56
2022/03/09 10:00:48;;;;;;;;;;;;;;;;;;4220939;28;1047;-56
2022/03/09 10:03:09;;;;;;;;;;;;;;;;;;4221052;28;911;-56
2022/03/09 10:05:31;;;;;;;;;;;;;;;;;;4221011;28;1016;-56
2022/03/09 10:07:52;;;;;;;;;;;;;;;;;;4220877;28;943;-57
2022/03/09 10:10:12;;;;;;;;;;;;;;;;;;4220800;28;1098;-57
2022/03/09 10:12:34;;;;;;;;;;;;;;;;;;4219827;28;1019;-56
2022/03/09 10:14:54;;;;;;;;;;;;;;;;;;4219882;28;825;-57
2022/03/09 10:17:15;;;;;;;;;;;;;;;;;;4220285;28;966;-57
2022/03/09 10:19:36;;;;;;;;;;;;;;;;;;4220909;28;848;-56
2022/03/09 10:21:56;;;;;;;;;;;;;;;;;;4220992;28;888;-56
2022/03/09 10:24:18;;;;;;;;;;;;;;;;;;4220290;28;1974;-57
2022/03/09 10:26:39;;;;;;;;;;;;;;;;;;4220525;28;1144;-56
2022/03/09 10:29:00;;;;;;;;;;;;;;;;;;4220854;28;1093;-57
2022/03/09 10:31:21;;;;;;;;;;;;;;;;;;4220078;28;946;-57
2022/03/09 10:33:42;;;;;;;;;;;;;;;;;;4205234;28;1073;-56
2022/03/09 10:36:03;;;;;;;;;;;;;;;;;;4220398;28;892;-57
2022/03/09 10:38:23;;;;;;;;;;;;;;;;;;4219379;28;1038;-57
2022/03/09 10:40:44;;;;;;;;;;;;;;;;;;4203518;28;1189;-61
2022/03/09 10:43:05;;;;;;;;;;;;;;;;;;4203485;28;855;-61
2022/03/09 10:45:26;;;;;;;;;;;;;;;;;;4203602;28;1910;-61
2022/03/09 10:47:46;;;;;;;;;;;;;;;;;;4203375;28;1052;-61
2022/03/09 10:50:07;;;;;;;;;;;;;;;;;;4203562;28;933;-62
2022/03/09 10:52:28;;;;;;;;;;;;;;;;;;4216635;28;1607;-61
2022/03/09 10:54:49;;;;;;;;;;;;;;;;;;4219848;28;1514;-61
2022/03/09 10:57:09;;;;;;;;;;;;;;;;;;4218484;28;2773;-61
2022/03/09 10:59:30;;;;;;;;;;;;;;;;;;4219229;28;845;-61
2022/03/09 11:01:50;;;;;;;;;;;;;;;;;;4219216;28;1107;-61
2022/03/09 11:04:11;;;;;;;;;;;;;;;;;;4219398;28;1913;-61
2022/03/09 11:06:31;;;;;;;;;;;;;;;;;;4218140;28;944;-62
2022/03/09 11:08:52;;;;;;;;;;;;;;;;;;4217095;28;1007;-62
2022/03/09 11:11:14;;;;;;;;;;;;;;;;;;4219649;28;1009;-62
2022/03/09 11:13:34;;;;;;;;;;;;;;;;;;4220769;28;999;-62
2022/03/09 11:15:55;;;;;;;;;;;;;;;;;;4220742;28;947;-62
2022/03/09 11:18:18;;;;;;;;;;;;;;;;;;4220284;28;1105;-61
2022/03/09 11:20:38;;;;;;;;;;;;;;;;;;4220977;28;809;-62
2022/03/09 11:22:59;;;;;;;;;;;;;;;;;;4217732;28;1391;-63
2022/03/09 11:25:20;;;;;;;;;;;;;;;;;;4220991;28;1981;-61
2022/03/09 11:27:41;;;;;;;;;;;;;;;;;;4220946;28;942;-61
2022/03/09 11:30:02;;;;;;;;;;;;;;;;;;4220612;28;827;-61
2022/03/09 11:32:22;;;;;;;;;;;;;;;;;;4220682;28;1250;-62
2022/03/09 11:34:43;;;;;;;;;;;;;;;;;;4208744;28;1278;-62
2022/03/09 11:37:04;;;;;;;;;;;;;;;;;;4208037;28;1372;-61
2022/03/09 11:39:25;;;;;;;;;;;;;;;;;;4215256;28;1542;-61
2022/03/09 11:41:46;;;;;;;;;;;;;;;;;;4219324;28;1000;-62
2022/03/09 11:44:07;;;;;;;;;;;;;;;;;;4219094;28;1991;-61
2022/03/09 11:46:27;;;;;;;;;;;;;;;;;;4219515;28;936;-62
2022/03/09 11:48:48;;;;;;;;;;;;;;;;;;4219743;28;910;-61
2022/03/09 11:51:13;;;;;;;;;;;;;;;;;;4219662;28;1114;-61
2022/03/09 11:53:33;;;;;;;;;;;;;;;;;;4219503;28;1257;-61
2022/03/09 11:55:54;;;;;;;;;;;;;;;;;;4219556;28;1024;-61
2022/03/09 11:58:15;;;;;;;;;;;;;;;;;;4202826;28;889;-61
2022/03/09 12:00:35;;;;;;;;;;;;;;;;;;4213954;28;1029;-61
2022/03/09 12:02:56;;;;;;;;;;;;;;;;;;4219119;28;1724;-62
2022/03/09 12:05:17;;;;;;;;;;;;;;;;;;4218621;28;1906;-61
2022/03/09 12:07:38;;;;;;;;;;;;;;;;;;4219728;28;1033;-59
2022/03/09 12:09:59;;;;;;;;;;;;;;;;;;4219235;28;1267;-59
2022/03/09 12:12:20;;;;;;;;;;;;;;;;;;4219304;28;823;-59
2022/03/09 12:14:41;;;;;;;;;;;;;;;;;;4219167;28;991;-59
2022/03/09 12:17:02;;;;;;;;;;;;;;;;;;4203490;28;929;-60
2022/03/09 12:19:23;;;;;;;;;;;;;;;;;;4218975;28;844;-60
2022/03/09 12:21:45;;;;;;;;;;;;;;;;;;4218937;28;927;-59
2022/03/09 12:24:06;;;;;;;;;;;;;;;;;;4218861;28;1067;-60
2022/03/09 12:26:27;;;;;;;;;;;;;;;;;;4219136;28;837;-59
2022/03/09 12:28:47;;;;;;;;;;;;;;;;;;4219429;28;949;-59
2022/03/09 12:31:08;;;;;;;;;;;;;;;;;;4217949;28;1563;-60
2022/03/09 12:33:29;;;;;;;;;;;;;;;;;;4218741;28;1403;-60
2022/03/09 12:35:49;;;;;;;;;;;;;;;;;;4218808;28;953;-60
2022/03/09 12:38:10;;;;;;;;;;;;;;;;;;4218077;28;1236;-59
2022/03/09 12:40:31;;;;;;;;;;;;;;;;;;4218510;28;1237;-59
2022/03/09 12:42:51;;;;;;;;;;;;;;;;;;4203157;28;1355;-59
2022/03/09 12:45:12;;;;;;;;;;;;;;;;;;4218152;28;2000;-59
2022/03/09 12:47:35;;;;;;;;;;;;;;;;;;4218813;28;878;-60
2022/03/09 12:49:56;;;;;;;;;;;;;;;;;;4218492;28;1186;-60
2022/03/09 12:52:17;;;;;;;;;;;;;;;;;;4218605;28;848;-59
2022/03/09 12:54:37;;;;;;;;;;;;;;;;;;4212290;28;1349;-59
2022/03/09 12:56:58;;;;;;;;;;;;;;;;;;4218535;28;963;-60
2022/03/09 12:59:18;;;;;;;;;;;;;;;;;;4218536;28;913;-59
2022/03/09 13:01:39;;;;;;;;;;;;;;;;;;4218950;28;1016;-59
2022/03/09 13:03:59;;;;;;;;;;;;;;;;;;4218735;28;885;-60
2022/03/09 13:06:20;;;;;;;;;;;;;;;;;;4218610;28;1913;-59
2022/03/09 13:08:40;;;;;;;;;;;;;;;;;;4218290;28;1077;-59
2022/03/09 13:11:01;;;;;;;;;;;;;;;;;;4217908;28;1100;-59
2022/03/09 13:13:22;;;;;;;;;;;;;;;;;;4218384;28;945;-59
2022/03/09 13:15:45;;;;;;;;;;;;;;;;;;4219023;28;966;-61
2022/03/09 13:18:06;;;;;;;;;;;;;;;;;;4221345;28;919;-60
2022/03/09 13:20:28;;;;;;;;;;;;;;;;;;4219827;28;840;-61
2022/03/09 13:22:48;;;;;;;;;;;;;;;;;;4221805;28;927;-61
2022/03/09 13:25:10;;;;;;;;;;;;;;;;;;4220576;28;1914;-59
2022/03/09 13:27:32;;;;;;;;;;;;;;;;;;4221581;28;1023;-60
2022/03/09 13:29:54;;;;;;;;;;;;;;;;;;4206068;28;822;-59
2022/03/09 13:32:15;;;;;;;;;;;;;;;;;;4221306;28;1057;-60
2022/03/09 13:34:36;;;;;;;;;;;;;;;;;;4210300;28;1562;-59
2022/03/09 13:36:57;;;;;;;;;;;;;;;;;;4204294;28;1021;-59
2022/03/09 13:39:17;;;;;;;;;;;;;;;;;;4211390;28;1310;-59
2022/03/09 13:41:39;;;;;;;;;;;;;;;;;;4220628;28;1153;-59
2022/03/09 13:44:00;;;;;;;;;;;;;;;;;;4220691;28;1189;-59
2022/03/09 13:46:22;;;;;;;;;;;;;;;;;;4221345;28;1979;-59
2022/03/09 13:48:43;;;;;;;;;;;;;;;;;;4221223;28;825;-59
2022/03/09 13:51:03;;;;;;;;;;;;;;;;;;4221257;28;844;-60
2022/03/09 13:53:24;;;;;;;;;;;;;;;;;;4220167;28;1310;-60
2022/03/09 13:55:45;;;;;;;;;;;;;;;;;;4221097;28;1062;-59
2022/03/09 13:58:05;;;;;;;;;;;;;;;;;;4220968;28;940;-60
2022/03/09 14:00:27;;;;;;;;;;;;;;;;;;4222021;28;850;-59
2022/03/09 14:02:48;;;;;;;;;;;;;;;;;;4221513;28;1023;-59
2022/03/09 14:05:08;;;;;;;;;;;;;;;;;;4221658;28;1978;-58
2022/03/09 14:07:29;;;;;;;;;;;;;;;;;;4221988;28;962;-58
2022/03/09 14:09:50;;;;;;;;;;;;;;;;;;4221379;28;1429;-58
2022/03/09 14:12:11;;;;;;;;;;;;;;;;;;4204409;28;1703;-58
2022/03/09 14:14:31;;;;;;;;;;;;;;;;;;4203541;28;1753;-58
2022/03/09 14:16:53;;;;;;;;;;;;;;;;;;4203519;28;1001;-59
2022/03/09 14:19:15;;;;;;;;;;;;;;;;;;4203871;28;910;-57
2022/03/09 14:21:36;;;;;;;;;;;;;;;;;;4203565;28;1009;-59
2022/03/09 14:23:57;;;;;;;;;;;;;;;;;;4208951;28;1047;-59
2022/03/09 14:26:18;;;;;;;;;;;;;;;;;;4204030;28;1991;-57
2022/03/09 14:28:38;;;;;;;;;;;;;;;;;;4217242;28;1131;-58
2022/03/09 14:30:59;;;;;;;;;;;;;;;;;;4220760;28;1050;-58
2022/03/09 14:33:20;;;;;;;;;;;;;;;;;;4219653;28;1891;-58
2022/03/09 14:35:40;;;;;;;;;;;;;;;;;;4203357;28;986;-58
2022/03/09 14:38:01;;;;;;;;;;;;;;;;;;4203718;28;834;-58
2022/03/09 14:40:22;;;;;;;;;;;;;;;;;;4205445;28;1325;-58
2022/03/09 14:42:42;;;;;;;;;;;;;;;;;;4220037;28;1434;-58
2022/03/09 14:45:03;;;;;;;;;;;;;;;;;;4218952;28;1053;-58
2022/03/09 14:47:24;;;;;;;;;;;;;;;;;;4220179;28;1013;-58
2022/03/09 14:49:44;;;;;;;;;;;;;;;;;;4219627;28;1353;-58
2022/03/09 14:52:05;;;;;;;;;;;;;;;;;;4220096;28;1018;-59
2022/03/09 14:54:26;;;;;;;;;;;;;;;;;;4221106;28;1106;-58
2022/03/09 14:56:48;;;;;;;;;;;;;;;;;;4205130;28;1975;-58
2022/03/09 14:59:09;;;;;;;;;;;;;;;;;;4221427;28;1154;-58
2022/03/09 15:01:30;;;;;;;;;;;;;;;;;;4221184;28;1156;-58
2022/03/09 15:03:51;;;;;;;;;;;;;;;;;;4221552;28;851;-58
2022/03/09 15:06:12;;;;;;;;;;;;;;;;;;4221557;28;1969;-58
2022/03/09 15:08:33;;;;;;;;;;;;;;;;;;4220172;28;1278;-58
2022/03/09 15:10:55;;;;;;;;;;;;;;;;;;4219119;28;998;-58
2022/03/09 15:13:16;;;;;;;;;;;;;;;;;;4210649;28;1801;-58
2022/03/09 15:15:37;;;;;;;;;;;;;;;;;;4202995;28;771;-58
2022/03/09 15:17:59;;;;;;;;;;;;;;;;;;4203140;28;827;-59
2022/03/09 15:20:19;;;;;;;;;;;;;;;;;;4203885;28;1643;-58
2022/03/09 15:22:40;;;;;;;;;;;;;;;;;;4219123;28;982;-58
2022/03/09 15:25:01;;;;;;;;;;;;;;;;;;4218830;28;1284;-58
2022/03/09 15:27:22;;;;;;;;;;;;;;;;;;4219247;28;1917;-58
2022/03/09 15:29:42;;;;;;;;;;;;;;;;;;4206759;28;1016;-58
2022/03/09 15:32:03;;;;;;;;;;;;;;;;;;4187531;28;1300;-59
2022/03/09 15:34:27;;;;;;;;;;;;;;;;;;4212247;28;1444;-58
2022/03/09 15:36:48;;;;;;;;;;;;;;;;;;4193679;28;1055;-58
2022/03/09 15:39:08;;;;;;;;;;;;;;;;;;4209880;28;1279;-58
2022/03/09 15:41:30;;;;;;;;;;;;;;;;;;4220273;28;2004;-58
2022/03/09 15:43:52;;;;;;;;;;;;;;;;;;4203965;28;900;-58
2022/03/09 15:46:12;;;;;;;;;;;;;;;;;;4204115;28;1930;-58
2022/03/09 15:48:33;;;;;;;;;;;;;;;;;;4204157;28;1082;-58
2022/03/09 15:50:54;;;;;;;;;;;;;;;;;;4215870;28;1234;-58
2022/03/09 15:53:14;;;;;;;;;;;;;;;;;;4220352;28;1326;-58
2022/03/09 15:55:35;;;;;;;;;;;;;;;;;;4212866;28;1469;-57
2022/03/09 15:57:56;;;;;;;;;;;;;;;;;;4218794;28;1007;-59
2022/03/09 16:00:16;;;;;;;;;;;;;;;;;;4218234;28;1008;-59
2022/03/09 16:02:38;;;;;;;;;;;;;;;;;;4218127;28;1131;-59
2022/03/09 16:04:59;;;;;;;;;;;;;;;;;;4219507;28;1005;-60
2022/03/09 16:07:20;;;;;;;;;;;;;;;;;;4219026;28;1988;-58
2022/03/09 16:09:41;;;;;;;;;;;;;;;;;;4218912;28;1480;-57
2022/03/09 16:12:02;;;;;;;;;;;;;;;;;;4219529;28;963;-59
2022/03/09 16:14:22;;;;;;;;;;;;;;;;;;4216847;28;1255;-60
2022/03/09 16:16:43;;;;;;;;;;;;;;;;;;4210120;28;972;-60
2022/03/09 16:19:06;;;;;;;;;;;;;;;;;;4201384;28;859;-59
2022/03/09 16:21:27;;;;;;;;;;;;;;;;;;4201853;28;1140;-60
2022/03/09 16:23:48;;;;;;;;;;;;;;;;;;4204588;28;1288;-61
2022/03/09 16:26:09;;;;;;;;;;;;;;;;;;4217745;28;1910;-60
2022/03/09 16:28:30;;;;;;;;;;;;;;;;;;4216768;28;1084;-59
2022/03/09 16:30:51;;;;;;;;;;;;;;;;;;4217791;28;1007;-59